General Aviation Weather

Text Reports

Enter one or more of the following location identifiers separated by a space:

Zip Code, Four-Character ICAO or Three-Character IATA airport codes.

METAR - Aviation Routine Weather Report
KVDF - Tampa Executive, Florida
Updated at 7:15 AM GMT on April 02, 2015 (3:15 AM EDT):
METAR KVDF 020715Z AUTO 00000KT 5SM BR CLR 17/15 A3016 RMK AO2
TAF - Terminal Area Forecast
KVDF - Tampa Executive, Florida
Updated at 7:15 AM GMT on April 02, 2015 (3:15 AM EDT):
No TAF is currently available for this location.
Decoded:
No decoded TAF is available.
PIREP - Pilot Weather Report
KVDF - Tampa Executive, Florida
Updated at 7:15 AM GMT on April 02, 2015 (3:15 AM EDT):
No PIREP is currently available for this location.
AIRMET - Airmens Meteorological Information
KVDF - Tampa Executive, Florida
Updated at 7:15 AM GMT on April 02, 2015 (3:15 AM EDT):
No AIRMET is currently available for this location.
SIGMET - Significant Meteorological Information
KVDF - Tampa Executive, Florida
Updated at 7:15 AM GMT on April 02, 2015 (3:15 AM EDT):
No SIGMET is currently available for this location.
NOTAM - Notice to Airmen
KVDF - Tampa Executive, Florida
Updated at 7:15 AM GMT on April 02, 2015 (3:15 AM EDT):
No NOTAM is currently available for this location.
Forecast Area
KVDF - Tampa Executive, Florida
Updated at 7:15 AM GMT on April 02, 2015 (3:15 AM EDT):
No NOTAM is currently available for this location.
Aviation Weather Maps